グアム の空港の天気 - METARとTAF

グアム国際空港 ( PGUM / GUM ) - グアム ハガニア
飛行場実況気象(Metar)
観測時間05/28 20:54 ChST (05/28 10:54 UTC)
風向・風速東 3m/s
視程10km以上
天気現象
少しの雲 雲底高度 520m
全天の4割程度の雲 雲底高度 2440m
気温27.2℃
湿度91%
気圧1011.2hPa
METARPGUM 281054Z 08006KT 10SM FEW017 SCT080 27/26 A2989 RMK AO2 SLP112 T02720256 $
過去の天気等 Google飛行場航空写真 Wunderground天気予報

過去48時間のMETAR

飛行場予報(TAF)
発表時間: 5/28 15:41 ChST (5/28 05:41 UTC)
予報対象時間: 28日16時 ChST ~ 29日22時 ChST
風向・風速東 7m/s
視程10km以上
天気現象周辺でしゅう雨
全天の4割程度の雲 雲底高度 760m
全天の4割程度の雲 雲底高度 1070m
28日16時 ChST ~ 28日20時 ChST に一時的に
風向・風速東 7m/s 瞬間風速 12m/s
PGUM 280541Z 2806/2912 09014KT P6SM VCSH SCT025 SCT035
TEMPO 2806/2810 09014G24KT